createdAt,value
2022-09-12T00:00:00.201Z,10.25
2022-09-12T00:02:28.246Z,16.02
2022-09-12T00:04:55.634Z,14.05
2022-09-12T00:07:22.968Z,17.13
2022-09-12T00:09:50.627Z,14.57
2022-09-12T00:12:19.851Z,13.05
2022-09-12T00:14:55.671Z,16.40
2022-09-12T00:17:23.445Z,10.05
2022-09-12T00:21:08.471Z,14.02
2022-09-12T00:23:35.703Z,12.88
2022-09-12T00:26:08.848Z,27.58
2022-09-12T00:28:38.153Z,17.30
2022-09-12T00:35:33.854Z,18.00
2022-09-12T00:38:01.390Z,14.85
2022-09-12T00:40:54.749Z,15.00
2022-09-12T00:43:31.423Z,16.58
2022-09-12T00:46:01.844Z,14.82
2022-09-12T00:48:52.747Z,23.30
2022-09-12T00:51:21.227Z,20.73
2022-09-12T00:53:55.049Z,20.10
2022-09-12T00:56:24.679Z,18.42
2022-09-12T00:59:01.109Z,14.82
2022-09-12T01:01:32.325Z,19.40
2022-09-12T01:04:04.188Z,14.45
2022-09-12T01:06:39.338Z,14.68
2022-09-12T01:09:16.754Z,10.45
2022-09-12T01:11:47.471Z,15.38
2022-09-12T01:14:18.654Z,14.13
2022-09-12T01:16:47.728Z,15.88
2022-09-12T01:19:48.751Z,15.57
2022-09-12T01:22:50.735Z,13.88
2022-09-12T01:25:40.984Z,18.52
2022-09-12T01:28:41.776Z,13.38
2022-09-12T01:31:35.136Z,15.07
2022-09-12T01:34:09.603Z,13.93
2022-09-12T01:36:50.378Z,12.65
2022-09-12T01:39:40.641Z,14.52
2022-09-12T01:42:13.346Z,10.68
2022-09-12T01:45:09.311Z,10.00
2022-09-12T01:47:50.521Z,10.40
2022-09-12T01:50:33.250Z,8.18
2022-09-12T01:53:26.332Z,7.80
2022-09-12T01:56:22.803Z,9.68
2022-09-12T01:59:35.683Z,14.18
2022-09-12T02:02:16.774Z,11.43
2022-09-12T02:05:01.632Z,13.23
2022-09-12T02:07:45.820Z,10.02
2022-09-12T02:10:32.718Z,14.10
2022-09-12T02:13:11.398Z,14.13
2022-09-12T02:15:51.188Z,12.75
2022-09-12T02:18:21.531Z,14.35
2022-09-12T02:20:55.114Z,12.27
2022-09-12T02:23:29.759Z,11.52
2022-09-12T02:26:04.927Z,15.00
2022-09-12T02:28:37.835Z,16.80
2022-09-12T02:31:17.558Z,15.45
2022-09-12T02:34:03.039Z,13.60
2022-09-12T02:36:57.211Z,11.38
2022-09-12T02:39:25.681Z,13.43
2022-09-12T02:41:59.528Z,12.95
2022-09-12T02:44:31.354Z,10.55
2022-09-12T02:47:09.102Z,14.43
2022-09-12T02:49:36.574Z,16.05
2022-09-12T02:52:05.802Z,16.80
2022-09-12T02:54:33.774Z,12.23
2022-09-12T02:57:04.625Z,13.73
2022-09-12T02:59:32.477Z,13.75
2022-09-12T03:02:32.949Z,12.15
2022-09-12T03:05:26.292Z,11.40
2022-09-12T03:08:00.014Z,11.90
2022-09-12T03:10:39.715Z,17.55
2022-09-12T03:13:21.219Z,13.30
2022-09-12T03:16:21.354Z,10.65
2022-09-12T03:19:13.501Z,10.82
2022-09-12T03:22:04.212Z,15.25
2022-09-12T03:24:40.172Z,13.35
2022-09-12T03:27:16.986Z,17.60
2022-09-12T03:29:49.125Z,13.73
2022-09-12T03:32:16.655Z,20.13
2022-09-12T03:34:44.195Z,18.73
2022-09-12T03:37:11.689Z,16.20
2022-09-12T03:39:54.936Z,23.15
2022-09-12T03:42:31.326Z,18.25
2022-09-12T03:44:59.406Z,22.45
2022-09-12T03:47:27.206Z,20.15
2022-09-12T03:49:55.793Z,23.92
2022-09-12T03:52:23.645Z,18.60
2022-09-12T03:54:52.425Z,16.67
2022-09-12T03:57:20.512Z,23.40
2022-09-12T03:59:51.605Z,17.55
2022-09-12T04:02:21.887Z,21.55
2022-09-12T04:04:51.740Z,19.23
2022-09-12T04:07:19.506Z,20.98
2022-09-12T04:09:53.741Z,24.58
2022-09-12T04:12:21.383Z,19.15
2022-09-12T04:14:52.192Z,17.65
2022-09-12T04:17:19.640Z,17.73
2022-09-12T04:19:47.204Z,18.23
2022-09-12T04:22:14.655Z,18.25
2022-09-12T04:24:42.981Z,18.95
2022-09-12T04:27:10.410Z,19.00
2022-09-12T04:29:37.805Z,21.65
2022-09-12T04:32:05.468Z,18.60
2022-09-12T04:34:33.107Z,16.25
2022-09-12T04:37:00.290Z,16.38
2022-09-12T04:39:27.873Z,20.17
2022-09-12T04:41:55.281Z,16.77
2022-09-12T04:44:25.007Z,16.95
2022-09-12T04:47:03.926Z,18.90
2022-09-12T04:50:05.820Z,16.33
2022-09-12T04:52:33.415Z,19.45
2022-09-12T04:55:00.975Z,16.23
2022-09-12T04:57:28.595Z,19.95
2022-09-12T04:59:56.312Z,15.65
2022-09-12T05:02:23.679Z,18.35
2022-09-12T05:04:51.579Z,17.63
2022-09-12T05:07:19.722Z,17.65
2022-09-12T05:09:50.130Z,15.10
2022-09-12T05:12:17.751Z,15.27
2022-09-12T05:14:45.740Z,13.57
2022-09-12T05:17:13.094Z,13.02
2022-09-12T05:19:40.359Z,18.33
2022-09-12T05:22:10.073Z,14.00
2022-09-12T05:24:39.891Z,13.75
2022-09-12T05:27:07.607Z,19.98
2022-09-12T05:29:34.959Z,15.63
2022-09-12T05:32:04.143Z,13.10
2022-09-12T05:34:31.349Z,20.45
2022-09-12T05:37:01.195Z,15.30
2022-09-12T05:39:28.637Z,15.65
2022-09-12T05:41:57.691Z,21.05
2022-09-12T05:44:25.178Z,16.38
2022-09-12T05:46:53.975Z,14.48
2022-09-12T05:49:22.759Z,13.02
2022-09-12T05:51:51.936Z,14.68
2022-09-12T05:54:20.641Z,15.02
2022-09-12T05:56:49.126Z,16.67
2022-09-12T05:59:19.768Z,16.38
2022-09-12T06:01:47.558Z,14.40
2022-09-12T06:04:19.774Z,12.13
2022-09-12T06:06:47.621Z,9.02
2022-09-12T06:09:16.710Z,10.82
2022-09-12T06:11:46.565Z,16.90
2022-09-12T06:14:16.641Z,15.75
2022-09-12T06:16:44.352Z,11.70
2022-09-12T06:19:19.740Z,15.25
2022-09-12T06:21:49.834Z,18.55
2022-09-12T06:24:18.371Z,14.18
2022-09-12T06:26:47.539Z,18.67
2022-09-12T06:29:15.439Z,15.30
2022-09-12T06:31:44.519Z,11.52
2022-09-12T06:34:16.627Z,11.73
2022-09-12T06:36:46.322Z,12.23
2022-09-12T06:39:16.428Z,13.55
2022-09-12T06:41:44.636Z,14.88
2022-09-12T06:44:22.843Z,16.17
2022-09-12T06:46:50.491Z,14.10
2022-09-12T06:49:20.762Z,10.73
2022-09-12T06:51:48.578Z,11.35
2022-09-12T06:54:20.250Z,11.13
2022-09-12T06:56:47.869Z,12.70
2022-09-12T06:59:15.201Z,10.65
2022-09-12T07:01:43.147Z,15.52
2022-09-12T07:04:11.722Z,9.85
2022-09-12T07:06:44.348Z,11.52
2022-09-12T07:09:17.204Z,13.52
2022-09-12T07:11:45.496Z,10.98
2022-09-12T07:14:14.925Z,11.65
2022-09-12T07:16:43.030Z,14.80
2022-09-12T07:19:13.972Z,9.43
2022-09-12T07:21:41.833Z,13.05
2022-09-12T07:24:11.082Z,11.55
2022-09-12T07:26:40.351Z,9.75
2022-09-12T07:31:56.818Z,6.95
2022-09-12T07:34:24.505Z,7.38
2022-09-12T07:36:51.905Z,11.05
2022-09-12T07:39:19.175Z,8.43
2022-09-12T07:41:46.805Z,14.77
2022-09-12T07:44:13.977Z,9.68
2022-09-12T07:46:41.290Z,13.30
2022-09-12T07:49:08.755Z,9.60
2022-09-12T07:51:36.334Z,9.18
2022-09-12T07:54:08.686Z,9.88
2022-09-12T07:56:38.920Z,9.57
2022-09-12T07:59:08.172Z,11.85
2022-09-12T08:01:35.659Z,8.02
2022-09-12T08:04:05.154Z,8.10
2022-09-12T08:06:36.282Z,12.43
2022-09-12T08:09:05.518Z,8.63
2022-09-12T08:11:33.111Z,9.38
2022-09-12T08:14:02.419Z,9.13
2022-09-12T08:16:31.387Z,7.88
2022-09-12T08:19:00.632Z,11.23
2022-09-12T08:21:30.214Z,8.80
2022-09-12T08:24:03.223Z,9.82
2022-09-12T08:26:30.975Z,10.65
2022-09-12T08:28:58.886Z,8.32
2022-09-12T08:31:30.893Z,10.45
2022-09-12T08:33:58.726Z,11.02
2022-09-12T08:36:28.290Z,12.13
2022-09-12T08:39:01.908Z,13.43
2022-09-12T08:41:30.528Z,10.25
2022-09-12T08:44:16.044Z,11.82
2022-09-12T08:47:08.179Z,17.30
2022-09-12T08:49:47.452Z,19.10
2022-09-12T08:52:22.522Z,19.58
2022-09-12T08:54:50.271Z,15.40
2022-09-12T08:57:19.301Z,10.80
2022-09-12T08:59:48.615Z,12.98
2022-09-12T09:02:34.896Z,17.25
2022-09-12T09:05:41.315Z,17.35
2022-09-12T09:08:44.126Z,17.35
2022-09-12T09:11:14.477Z,14.07
2022-09-12T09:14:21.668Z,14.02
2022-09-12T09:16:53.401Z,16.90
2022-09-12T09:19:31.418Z,20.33
2022-09-12T09:22:07.593Z,13.77
2022-09-12T09:24:52.016Z,14.15
2022-09-12T09:27:40.782Z,19.05
2022-09-12T09:30:16.916Z,17.73
2022-09-12T09:32:48.962Z,17.88
2022-09-12T09:35:23.705Z,18.08
2022-09-12T09:38:36.033Z,15.50
2022-09-12T09:41:12.503Z,17.90
2022-09-12T09:43:40.038Z,19.20
2022-09-12T09:46:07.531Z,16.20
2022-09-12T09:48:44.191Z,20.30
2022-09-12T09:51:16.665Z,19.05
2022-09-12T09:54:08.148Z,19.98
2022-09-12T09:56:37.799Z,22.85
2022-09-12T09:59:21.500Z,21.70
2022-09-12T10:01:54.893Z,24.70
2022-09-12T10:04:24.947Z,23.27
2022-09-12T10:10:22.925Z,26.52
2022-09-12T10:13:24.314Z,27.05
2022-09-12T10:16:10.881Z,26.45
2022-09-12T10:19:43.545Z,24.63
2022-09-12T10:22:18.371Z,26.58
2022-09-12T10:24:52.631Z,25.73
2022-09-12T10:27:23.840Z,20.85
2022-09-12T10:29:56.472Z,24.27
2022-09-12T10:32:42.865Z,29.73
2022-09-12T10:35:28.611Z,29.13
2022-09-12T10:38:00.428Z,29.17
2022-09-12T10:40:32.845Z,29.77
2022-09-12T10:43:01.834Z,28.40
2022-09-12T10:45:35.884Z,26.92
2022-09-12T10:48:22.954Z,22.45
2022-09-12T10:50:51.151Z,25.65
2022-09-12T10:53:33.628Z,25.48
2022-09-12T10:56:18.996Z,26.67
2022-09-12T10:58:58.247Z,25.35
2022-09-12T11:01:29.985Z,27.08
2022-09-12T11:04:19.415Z,27.20
2022-09-12T11:07:06.949Z,24.80
2022-09-12T11:10:01.921Z,34.28
2022-09-12T11:12:38.618Z,27.33
2022-09-12T11:15:11.899Z,22.95
2022-09-12T11:18:13.239Z,25.33
2022-09-12T11:21:10.091Z,23.75
2022-09-12T11:23:56.201Z,24.23
2022-09-12T11:26:42.890Z,26.35
2022-09-12T11:29:29.699Z,30.70
2022-09-12T11:32:23.290Z,23.50
2022-09-12T11:35:02.623Z,26.60
2022-09-12T11:37:51.780Z,27.58
2022-09-12T11:40:55.835Z,26.48
2022-09-12T11:43:42.037Z,25.55
2022-09-12T11:46:25.618Z,25.55
2022-09-12T11:49:06.665Z,23.48
2022-09-12T11:51:52.744Z,34.00
2022-09-12T11:54:32.965Z,23.83
2022-09-12T11:57:25.228Z,27.73
2022-09-12T11:59:58.434Z,24.55
2022-09-12T12:02:31.514Z,30.45
2022-09-12T12:05:31.922Z,25.65
2022-09-12T12:08:02.334Z,27.23
2022-09-12T12:10:38.441Z,24.88
2022-09-12T12:13:26.684Z,28.42
2022-09-12T12:16:13.033Z,30.02
2022-09-12T12:18:43.173Z,27.88
2022-09-12T12:21:30.307Z,30.13
2022-09-12T12:24:09.755Z,29.25
2022-09-12T12:26:41.000Z,28.02
2022-09-12T12:29:17.465Z,25.13
2022-09-12T12:32:04.539Z,29.35
2022-09-12T12:34:35.226Z,25.45
2022-09-12T12:37:23.848Z,25.02
2022-09-12T12:40:01.409Z,22.88
2022-09-12T12:42:35.422Z,23.48
2022-09-12T12:45:04.612Z,22.50
2022-09-12T12:47:37.895Z,22.52
2022-09-12T12:50:05.654Z,21.13
2022-09-12T12:52:51.317Z,26.17
2022-09-12T12:55:53.658Z,24.70
2022-09-12T12:58:41.533Z,17.50
2022-09-12T13:01:20.725Z,22.02
2022-09-12T13:03:59.962Z,19.42
2022-09-12T13:06:27.253Z,21.60
2022-09-12T13:09:00.433Z,18.92
2022-09-12T13:11:41.945Z,13.60
2022-09-12T13:14:43.586Z,23.98
2022-09-12T13:17:26.247Z,18.60
2022-09-12T13:20:26.062Z,20.48
2022-09-12T13:22:57.176Z,17.63
2022-09-12T13:25:34.775Z,17.23
2022-09-12T13:28:11.682Z,17.75
2022-09-12T13:30:43.017Z,11.18
2022-09-12T13:36:30.917Z,15.23
2022-09-12T13:39:20.878Z,12.63
2022-09-12T13:42:16.363Z,13.32
2022-09-12T13:44:53.666Z,20.23
2022-09-12T13:47:54.293Z,12.00
2022-09-12T13:50:32.093Z,15.82
2022-09-12T13:53:12.856Z,12.25
2022-09-12T13:55:46.480Z,22.00
2022-09-12T13:58:29.870Z,13.98
2022-09-12T14:01:12.055Z,14.07
2022-09-12T14:04:17.923Z,15.88
2022-09-12T14:06:50.925Z,13.15
2022-09-12T14:09:31.610Z,13.45
2022-09-12T14:11:59.652Z,16.65
2022-09-12T14:14:34.245Z,9.00
2022-09-12T14:17:24.825Z,11.68
2022-09-12T14:19:53.075Z,14.60
2022-09-12T14:22:20.551Z,9.55
2022-09-12T14:24:50.758Z,16.17
2022-09-12T14:27:20.105Z,11.30
2022-09-12T14:29:47.994Z,9.05
2022-09-12T14:32:25.067Z,12.13
2022-09-12T14:35:19.246Z,9.00
2022-09-12T14:37:49.988Z,9.55
2022-09-12T14:40:23.874Z,9.63
2022-09-12T14:42:55.216Z,10.80
2022-09-12T14:45:32.600Z,11.65
2022-09-12T14:47:59.981Z,7.40
2022-09-12T14:50:32.219Z,17.10
2022-09-12T14:53:05.022Z,9.55
2022-09-12T14:55:35.518Z,9.98
2022-09-12T14:58:15.076Z,14.27
2022-09-12T15:01:00.208Z,10.38
2022-09-12T15:03:43.883Z,10.75
2022-09-12T15:06:31.576Z,7.40
2022-09-12T15:09:06.251Z,7.00
2022-09-12T15:11:34.070Z,16.38
2022-09-12T15:14:17.657Z,12.80
2022-09-12T15:16:45.062Z,5.43
2022-09-12T15:19:13.946Z,8.43
2022-09-12T15:22:12.899Z,7.60
2022-09-12T15:25:19.161Z,7.28
2022-09-12T15:28:11.940Z,7.78
2022-09-12T15:30:43.032Z,9.20
2022-09-12T15:33:12.352Z,7.80
2022-09-12T15:36:05.475Z,9.45
2022-09-12T15:39:14.946Z,7.60
2022-09-12T15:41:50.566Z,8.18
2022-09-12T15:44:17.847Z,8.80
2022-09-12T15:46:47.979Z,9.38
2022-09-12T15:49:15.450Z,10.30
2022-09-12T15:51:45.622Z,6.75
2022-09-12T15:54:15.538Z,10.25
2022-09-12T15:56:44.121Z,9.05
2022-09-12T15:59:11.384Z,6.28
2022-09-12T16:01:44.122Z,10.52
2022-09-12T16:04:37.787Z,9.50
2022-09-12T16:07:06.072Z,7.43
2022-09-12T16:09:33.905Z,6.97
2022-09-12T16:12:02.833Z,6.28
2022-09-12T16:14:30.144Z,6.88
2022-09-12T16:16:57.473Z,7.20
2022-09-12T16:19:28.125Z,7.93
2022-09-12T16:21:55.580Z,8.05
2022-09-12T16:24:22.913Z,9.30
2022-09-12T16:26:50.402Z,14.80
2022-09-12T16:29:20.686Z,10.95
2022-09-12T16:31:50.990Z,7.53
2022-09-12T16:34:18.348Z,5.68
2022-09-12T16:36:46.219Z,7.60
2022-09-12T16:39:14.176Z,9.68
2022-09-12T16:41:44.030Z,11.30
2022-09-12T16:44:11.369Z,16.17
2022-09-12T16:46:38.757Z,14.68
2022-09-12T16:49:06.655Z,11.88
2022-09-12T16:51:36.184Z,15.38
2022-09-12T16:54:04.294Z,11.35
2022-09-12T16:56:34.953Z,9.15
2022-09-12T16:59:02.176Z,13.00
2022-09-12T17:01:31.250Z,11.68
2022-09-12T17:04:01.035Z,10.18
2022-09-12T17:06:29.185Z,10.43
2022-09-12T17:09:01.065Z,12.05
2022-09-12T17:11:36.753Z,11.95
2022-09-12T17:14:07.561Z,10.32
2022-09-12T17:16:40.098Z,9.38
2022-09-12T17:19:08.700Z,7.78
2022-09-12T17:24:09.135Z,7.50
2022-09-12T17:26:36.724Z,7.47
2022-09-12T17:29:04.314Z,6.78
2022-09-12T17:31:32.315Z,8.30
2022-09-12T17:34:01.239Z,7.72
2022-09-12T17:36:29.626Z,6.63
2022-09-12T17:38:56.987Z,6.55
2022-09-12T17:41:26.886Z,8.43
2022-09-12T17:43:58.734Z,7.70
2022-09-12T17:46:40.640Z,5.85
2022-09-12T17:49:12.604Z,7.70
2022-09-12T17:51:59.367Z,8.50
2022-09-12T17:54:37.386Z,9.48
2022-09-12T17:57:10.941Z,5.60
2022-09-12T17:59:41.498Z,6.57
2022-09-12T18:02:15.148Z,3.85
2022-09-12T18:04:47.072Z,7.03
2022-09-12T18:07:19.593Z,5.60
2022-09-12T18:09:48.160Z,6.72
2022-09-12T18:12:20.950Z,7.35
2022-09-12T18:14:48.441Z,4.85
2022-09-12T18:17:18.597Z,8.57
2022-09-12T18:19:52.873Z,11.75
2022-09-12T18:22:21.020Z,5.15
2022-09-12T18:24:49.049Z,6.32
2022-09-12T18:27:17.320Z,7.15
2022-09-12T18:29:58.912Z,10.60
2022-09-12T18:32:32.937Z,10.25
2022-09-12T18:35:05.329Z,12.18
2022-09-12T18:37:57.722Z,8.63
2022-09-12T18:41:31.557Z,6.85
2022-09-12T18:44:03.043Z,8.80
2022-09-12T18:46:31.708Z,9.63
2022-09-12T18:49:00.496Z,4.63
2022-09-12T18:51:33.050Z,10.00
2022-09-12T18:54:07.125Z,9.77
2022-09-12T18:56:39.021Z,6.80
2022-09-12T18:59:07.427Z,7.85
2022-09-12T19:02:01.456Z,6.28
2022-09-12T19:04:28.892Z,12.52
2022-09-12T19:06:56.393Z,7.30
2022-09-12T19:09:24.321Z,9.98
2022-09-12T19:11:52.907Z,9.20
2022-09-12T19:14:42.439Z,7.00
2022-09-12T19:17:10.367Z,10.65
2022-09-12T19:19:40.501Z,9.40
2022-09-12T19:22:08.126Z,9.85
2022-09-12T19:24:35.928Z,9.70
2022-09-12T19:27:03.403Z,8.07
2022-09-12T19:29:31.489Z,7.60
2022-09-12T19:31:58.849Z,6.60
2022-09-12T19:34:26.470Z,9.95
2022-09-12T19:36:54.883Z,7.50
2022-09-12T19:39:24.140Z,7.90
2022-09-12T19:41:51.524Z,9.25
2022-09-12T19:44:22.662Z,12.60
2022-09-12T19:46:50.130Z,7.65
2022-09-12T19:49:17.921Z,5.45
2022-09-12T19:51:50.063Z,7.10
2022-09-12T19:54:18.469Z,7.03
2022-09-12T19:56:46.036Z,6.72
2022-09-12T19:59:13.982Z,12.60
2022-09-12T20:01:44.274Z,8.65
2022-09-12T20:04:12.076Z,8.90
2022-09-12T20:06:39.210Z,9.68
2022-09-12T20:09:10.362Z,9.93
2022-09-12T20:12:56.467Z,10.00
2022-09-12T20:15:23.874Z,14.88
2022-09-12T20:17:55.787Z,8.38
2022-09-12T20:20:27.888Z,9.57
2022-09-12T20:22:55.441Z,9.93
2022-09-12T20:25:22.844Z,6.90
2022-09-12T20:27:50.325Z,10.75
2022-09-12T20:30:17.751Z,9.88
2022-09-12T20:32:45.182Z,10.15
2022-09-12T20:35:12.416Z,10.15
2022-09-12T20:37:40.894Z,5.55
2022-09-12T20:40:10.459Z,9.43
2022-09-12T20:42:37.987Z,14.23
2022-09-12T20:45:05.864Z,10.07
2022-09-12T20:47:33.219Z,10.35
2022-09-12T20:50:03.452Z,11.88
2022-09-12T20:52:32.151Z,6.10
2022-09-12T20:54:59.468Z,9.07
2022-09-12T20:57:28.759Z,8.18
2022-09-12T20:59:55.923Z,9.40
2022-09-12T21:02:23.395Z,9.05
2022-09-12T21:04:51.288Z,7.07
2022-09-12T21:07:18.556Z,8.75
2022-09-12T21:09:46.034Z,5.57
2022-09-12T21:12:13.829Z,9.30
2022-09-12T21:14:41.470Z,6.13
2022-09-12T21:17:08.937Z,8.98
2022-09-12T21:19:36.470Z,9.82
2022-09-12T21:22:04.077Z,9.27
2022-09-12T21:24:31.639Z,7.28
2022-09-12T21:27:03.481Z,7.75
2022-09-12T21:29:31.515Z,12.68
2022-09-12T21:33:22.439Z,7.18
2022-09-12T21:35:50.352Z,9.82
2022-09-12T21:38:18.880Z,5.80
2022-09-12T21:40:47.875Z,7.85
2022-09-12T21:43:15.865Z,9.35
2022-09-12T21:45:47.313Z,9.18
2022-09-12T21:48:16.837Z,11.32
2022-09-12T21:51:12.828Z,10.00
2022-09-12T21:53:40.008Z,8.40
2022-09-12T21:56:08.769Z,7.07
2022-09-12T21:58:38.223Z,8.05
2022-09-12T22:01:12.254Z,7.97
2022-09-12T22:03:40.556Z,15.25
2022-09-12T22:06:08.000Z,8.63
2022-09-12T22:08:37.612Z,12.63
2022-09-12T22:11:13.038Z,10.77
2022-09-12T22:13:44.415Z,9.65
2022-09-12T22:16:12.547Z,7.90
2022-09-12T22:18:40.457Z,7.75
2022-09-12T22:21:16.431Z,9.60
2022-09-12T22:24:03.148Z,5.50
2022-09-12T22:26:44.396Z,10.25
2022-09-12T22:29:14.892Z,11.82
2022-09-12T22:31:46.436Z,9.18
2022-09-12T22:34:14.775Z,17.85
2022-09-12T22:36:42.390Z,12.25
2022-09-12T22:39:12.892Z,10.98
2022-09-12T22:41:51.181Z,10.48
2022-09-12T22:44:20.345Z,8.02
2022-09-12T22:46:52.229Z,8.57
2022-09-12T22:49:20.537Z,10.10
2022-09-12T22:51:50.816Z,15.15
2022-09-12T22:54:18.313Z,11.60
2022-09-12T22:56:51.578Z,14.13
2022-09-12T22:59:21.757Z,11.35
2022-09-12T23:01:52.185Z,12.27
2022-09-12T23:04:19.953Z,10.88
2022-09-12T23:06:47.633Z,14.43
2022-09-12T23:09:15.209Z,11.50
2022-09-12T23:11:42.835Z,10.77
2022-09-12T23:14:10.329Z,13.45
2022-09-12T23:16:37.931Z,10.02
2022-09-12T23:19:05.393Z,11.57
2022-09-12T23:21:38.082Z,9.15
2022-09-12T23:24:06.078Z,8.52
2022-09-12T23:26:33.654Z,12.25
2022-09-12T23:29:02.726Z,9.15
2022-09-12T23:31:34.008Z,9.57
2022-09-12T23:34:03.403Z,11.15
2022-09-12T23:36:32.186Z,8.50
2022-09-12T23:38:59.551Z,8.77
2022-09-12T23:41:29.961Z,9.60
2022-09-12T23:43:58.624Z,8.25
2022-09-12T23:46:25.954Z,9.43
2022-09-12T23:48:55.889Z,14.07
2022-09-12T23:51:23.414Z,12.13
2022-09-12T23:53:51.208Z,7.75
2022-09-12T23:56:18.448Z,8.82
2022-09-12T23:58:47.468Z,10.52
